Terminal Aerodrome Forecast
Issued by NWS Sioux Falls, SD

Home | Current Version | Previous Version | Graphics & Text | Print | Product List | Glossary On
Versions: 1 2 3 4 5 6 7 8 9 10 11 12 13 14 15
000
FTUS43 KFSD 292330
TAFFSD
TAF
KFSD 292330Z 3000/3024 17005KT P6SM BKN150
     FM301200 29008KT P6SM BKN120
     FM301500 32010KT P6SM BKN040
     FM301700 34018G28KT P6SM OVC025
     FM302300 35014G20KT P6SM OVC030=

USA.gov is the U.S. government's official web portal to all federal, state and local government web resources and services.